createdAt,value
2023-05-13T00:01:54.959Z,9.70
2023-05-13T00:04:21.940Z,9.80
2023-05-13T00:06:48.953Z,9.70
2023-05-13T00:09:15.962Z,9.70
2023-05-13T00:11:42.926Z,9.70
2023-05-13T00:14:11.061Z,9.70
2023-05-13T00:16:38.143Z,9.70
2023-05-13T00:19:05.187Z,9.70
2023-05-13T00:21:33.723Z,9.70
2023-05-13T00:24:01.113Z,9.70
2023-05-13T00:26:28.107Z,9.60
2023-05-13T00:28:55.329Z,9.60
2023-05-13T00:31:22.622Z,9.60
2023-05-13T00:33:49.720Z,9.60
2023-05-13T00:36:16.715Z,9.60
2023-05-13T00:38:44.204Z,9.60
2023-05-13T00:41:11.686Z,9.60
2023-05-13T00:43:38.936Z,9.60
2023-05-13T00:46:06.380Z,9.50
2023-05-13T00:48:34.044Z,9.60
2023-05-13T00:51:01.247Z,9.50
2023-05-13T00:53:28.538Z,9.50
2023-05-13T00:55:55.809Z,9.60
2023-05-13T00:58:23.018Z,9.50
2023-05-13T01:00:56.482Z,9.50
2023-05-13T01:03:28.449Z,9.50
2023-05-13T01:06:04.689Z,9.50
2023-05-13T01:08:34.721Z,9.50
2023-05-13T01:11:03.995Z,9.50
2023-05-13T01:13:33.641Z,9.50
2023-05-13T01:16:01.727Z,9.50
2023-05-13T01:18:29.659Z,9.50
2023-05-13T01:20:56.684Z,9.50
2023-05-13T01:23:23.750Z,9.50
2023-05-13T01:25:50.751Z,9.40
2023-05-13T01:28:18.018Z,9.50
2023-05-13T01:30:49.228Z,9.40
2023-05-13T01:33:16.584Z,9.40
2023-05-13T01:35:43.705Z,9.40
2023-05-13T01:38:11.802Z,9.40
2023-05-13T01:40:39.502Z,9.40
2023-05-13T01:43:07.676Z,9.40
2023-05-13T01:45:36.750Z,9.40
2023-05-13T01:48:04.613Z,9.40
2023-05-13T01:50:40.551Z,9.40
2023-05-13T01:53:08.481Z,9.40
2023-05-13T01:55:36.111Z,9.40
2023-05-13T01:58:04.730Z,9.40
2023-05-13T02:00:31.916Z,9.40
2023-05-13T02:02:59.209Z,9.40
2023-05-13T02:05:26.317Z,9.40
2023-05-13T02:07:55.261Z,9.40
2023-05-13T02:10:22.593Z,9.30
2023-05-13T02:12:49.765Z,9.40
2023-05-13T02:15:17.000Z,9.30
2023-05-13T02:17:44.118Z,9.30
2023-05-13T02:20:12.164Z,9.40
2023-05-13T02:22:39.245Z,9.30
2023-05-13T02:25:07.725Z,9.30
2023-05-13T02:27:37.184Z,9.30
2023-05-13T02:30:05.099Z,9.30
2023-05-13T02:32:32.205Z,9.30
2023-05-13T02:34:59.272Z,9.30
2023-05-13T02:37:26.696Z,9.30
2023-05-13T02:40:00.904Z,9.30
2023-05-13T02:42:27.985Z,9.30
2023-05-13T02:44:55.414Z,9.30
2023-05-13T02:47:24.147Z,9.30
2023-05-13T02:49:51.495Z,9.30
2023-05-13T02:52:18.622Z,9.30
2023-05-13T02:54:45.884Z,9.30
2023-05-13T02:57:13.187Z,9.20
2023-05-13T02:59:41.964Z,9.20
2023-05-13T03:02:08.989Z,9.20
2023-05-13T03:04:36.322Z,9.20
2023-05-13T03:07:03.328Z,9.20
2023-05-13T03:09:31.550Z,9.20
2023-05-13T03:11:58.788Z,9.20
2023-05-13T03:14:27.926Z,9.20
2023-05-13T03:16:55.219Z,9.20
2023-05-13T03:19:22.318Z,9.20
2023-05-13T03:21:49.559Z,9.20
2023-05-13T03:24:17.213Z,9.20
2023-05-13T03:26:44.627Z,9.20
2023-05-13T03:29:11.983Z,9.20
2023-05-13T03:31:39.678Z,9.20
2023-05-13T03:34:07.002Z,9.20
2023-05-13T03:36:34.562Z,9.20
2023-05-13T03:39:01.784Z,9.30
2023-05-13T03:41:29.749Z,9.30
2023-05-13T03:43:59.229Z,9.30
2023-05-13T03:46:29.384Z,9.30
2023-05-13T03:48:56.890Z,9.30
2023-05-13T03:51:25.243Z,9.30
2023-05-13T03:53:52.214Z,9.30
2023-05-13T03:56:19.347Z,9.30
2023-05-13T03:58:46.669Z,9.30
2023-05-13T04:01:13.656Z,9.20
2023-05-13T04:03:42.776Z,9.30
2023-05-13T04:06:09.761Z,9.20
2023-05-13T04:08:36.925Z,9.20
2023-05-13T04:11:03.945Z,9.20
2023-05-13T04:13:32.381Z,9.20
2023-05-13T04:15:59.372Z,9.30
2023-05-13T04:18:29.160Z,9.20
2023-05-13T04:20:56.211Z,9.20
2023-05-13T04:23:23.512Z,9.20
2023-05-13T04:25:53.612Z,9.20
2023-05-13T04:28:20.787Z,9.20
2023-05-13T04:30:49.059Z,9.20
2023-05-13T04:33:16.656Z,9.20
2023-05-13T04:35:45.891Z,9.20
2023-05-13T04:38:13.514Z,9.20
2023-05-13T04:40:40.775Z,9.10
2023-05-13T04:43:12.287Z,9.20
2023-05-13T04:45:46.955Z,9.10
2023-05-13T04:48:14.649Z,9.10
2023-05-13T04:50:48.111Z,9.10
2023-05-13T04:53:16.702Z,9.10
2023-05-13T04:55:46.473Z,9.10
2023-05-13T04:58:13.559Z,9.10
2023-05-13T05:00:40.871Z,9.10
2023-05-13T05:03:07.933Z,9.10
2023-05-13T05:05:34.953Z,9.10
2023-05-13T05:08:02.374Z,9.10
2023-05-13T05:10:29.514Z,9.10
2023-05-13T05:13:00.140Z,9.10
2023-05-13T05:15:27.465Z,9.10
2023-05-13T05:17:57.075Z,9.00
2023-05-13T05:20:24.445Z,9.00
2023-05-13T05:22:54.201Z,9.10
2023-05-13T05:25:24.985Z,9.10
2023-05-13T05:27:51.990Z,9.10
2023-05-13T05:30:19.194Z,9.10
2023-05-13T05:32:51.842Z,9.10
2023-05-13T05:35:19.799Z,9.10
2023-05-13T05:37:47.108Z,9.00
2023-05-13T05:40:14.532Z,9.00
2023-05-13T05:42:41.648Z,9.00
2023-05-13T05:45:09.528Z,9.00
2023-05-13T05:47:37.419Z,9.00
2023-05-13T05:50:04.887Z,9.10
2023-05-13T05:52:32.188Z,9.10
2023-05-13T05:54:59.448Z,9.10
2023-05-13T05:57:26.413Z,9.10
2023-05-13T05:59:53.401Z,9.10
2023-05-13T06:02:28.785Z,9.10
2023-05-13T06:04:56.163Z,9.10
2023-05-13T06:07:23.402Z,9.20
2023-05-13T06:09:50.699Z,9.20
2023-05-13T06:12:17.694Z,9.20
2023-05-13T06:14:44.670Z,9.20
2023-05-13T06:17:14.624Z,9.20
2023-05-13T06:19:44.666Z,9.20
2023-05-13T06:22:11.665Z,9.20
2023-05-13T06:24:39.042Z,9.20
2023-05-13T06:27:07.089Z,9.10
2023-05-13T06:29:35.610Z,9.20
2023-05-13T06:32:02.887Z,9.20
2023-05-13T06:34:29.972Z,9.10
2023-05-13T06:36:57.220Z,9.10
2023-05-13T06:39:24.644Z,9.20
2023-05-13T06:41:52.117Z,9.20
2023-05-13T06:44:20.920Z,9.20
2023-05-13T06:46:47.946Z,9.20
2023-05-13T06:49:15.235Z,9.20
2023-05-13T06:51:42.373Z,9.20
2023-05-13T06:54:09.609Z,9.30
2023-05-13T06:56:36.857Z,9.20
2023-05-13T06:59:03.902Z,9.30
2023-05-13T07:01:31.126Z,9.30
2023-05-13T07:03:58.494Z,9.30
2023-05-13T07:06:25.653Z,9.30
2023-05-13T07:08:52.699Z,9.40
2023-05-13T07:11:19.722Z,9.40
2023-05-13T07:13:47.103Z,9.40
2023-05-13T07:16:14.504Z,9.40
2023-05-13T07:18:41.538Z,9.40
2023-05-13T07:21:08.655Z,9.40
2023-05-13T07:23:35.882Z,9.40
2023-05-13T07:26:03.075Z,9.40
2023-05-13T07:28:30.856Z,9.40
2023-05-13T07:30:58.460Z,9.40
2023-05-13T07:33:25.688Z,9.40
2023-05-13T07:35:53.034Z,9.40
2023-05-13T07:38:20.001Z,9.40
2023-05-13T07:40:47.009Z,9.40
2023-05-13T07:43:14.034Z,9.40
2023-05-13T07:45:42.156Z,9.40
2023-05-13T07:48:10.030Z,9.50
2023-05-13T07:50:37.907Z,9.40
2023-05-13T07:53:04.898Z,9.50
2023-05-13T07:55:31.859Z,9.50
2023-05-13T07:57:58.891Z,9.50
2023-05-13T08:00:26.114Z,9.50
2023-05-13T08:02:53.353Z,9.50
2023-05-13T08:05:20.605Z,9.50
2023-05-13T08:07:47.951Z,9.50
2023-05-13T08:10:14.980Z,9.50
2023-05-13T08:12:42.333Z,9.50
2023-05-13T08:15:09.615Z,9.50
2023-05-13T08:17:36.616Z,9.50
2023-05-13T08:20:03.913Z,9.50
2023-05-13T08:22:31.214Z,9.40
2023-05-13T08:25:01.157Z,9.50
2023-05-13T08:27:28.214Z,9.50
2023-05-13T08:29:55.202Z,9.50
2023-05-13T08:32:22.328Z,9.50
2023-05-13T08:34:50.285Z,9.50
2023-05-13T08:37:17.311Z,9.50
2023-05-13T08:39:44.272Z,9.50
2023-05-13T08:42:11.233Z,9.60
2023-05-13T08:44:39.464Z,9.50
2023-05-13T08:47:25.556Z,9.60
2023-05-13T08:49:52.620Z,9.60
2023-05-13T08:52:19.658Z,9.50
2023-05-13T08:54:46.715Z,9.50
2023-05-13T08:57:13.671Z,9.60
2023-05-13T08:59:40.763Z,9.60
2023-05-13T09:02:08.100Z,9.60
2023-05-13T09:04:37.605Z,9.60
2023-05-13T09:07:05.025Z,9.60
2023-05-13T09:09:31.991Z,9.70
2023-05-13T09:11:59.010Z,9.70
2023-05-13T09:14:32.651Z,9.70
2023-05-13T09:17:00.908Z,9.70
2023-05-13T09:19:28.104Z,9.80
2023-05-13T09:21:55.773Z,9.70
2023-05-13T09:24:22.950Z,9.80
2023-05-13T09:26:50.426Z,9.70
2023-05-13T09:29:18.098Z,9.80
2023-05-13T09:31:46.171Z,9.80
2023-05-13T09:34:13.278Z,9.80
2023-05-13T09:36:40.305Z,9.80
2023-05-13T09:39:07.271Z,9.80
2023-05-13T09:41:34.316Z,9.90
2023-05-13T09:44:04.997Z,9.80
2023-05-13T09:46:35.023Z,9.90
2023-05-13T09:49:02.017Z,9.90
2023-05-13T09:51:31.941Z,9.90
2023-05-13T09:54:06.142Z,9.90
2023-05-13T09:56:34.356Z,9.90
2023-05-13T09:59:02.047Z,10.00
2023-05-13T10:01:29.278Z,10.00
2023-05-13T10:03:56.621Z,10.00
2023-05-13T10:06:24.548Z,9.90
2023-05-13T10:08:52.325Z,10.00
2023-05-13T10:11:19.512Z,9.90
2023-05-13T10:13:48.193Z,10.00
2023-05-13T10:16:15.207Z,10.00
2023-05-13T10:18:42.385Z,10.00
2023-05-13T10:21:09.677Z,10.00
2023-05-13T10:23:36.756Z,10.10
2023-05-13T10:26:03.849Z,10.10
2023-05-13T10:28:31.881Z,10.10
2023-05-13T10:30:58.846Z,10.10
2023-05-13T10:33:27.342Z,10.20
2023-05-13T10:36:11.376Z,10.20
2023-05-13T10:38:48.331Z,10.20
2023-05-13T10:41:24.927Z,10.30
2023-05-13T10:43:58.757Z,10.40
2023-05-13T10:46:26.342Z,10.40
2023-05-13T10:48:57.103Z,10.50
2023-05-13T10:51:24.635Z,10.50
2023-05-13T10:53:52.784Z,10.50
2023-05-13T10:56:20.519Z,10.50
2023-05-13T10:59:04.472Z,10.50
2023-05-13T11:01:35.639Z,10.50
2023-05-13T11:04:04.186Z,10.50
2023-05-13T11:06:38.357Z,10.60
2023-05-13T11:09:06.010Z,10.60
2023-05-13T11:11:33.966Z,10.60
2023-05-13T11:14:20.820Z,10.60
2023-05-13T11:16:48.223Z,10.70
2023-05-13T11:19:19.559Z,10.70
2023-05-13T11:21:47.940Z,10.70
2023-05-13T11:24:17.086Z,10.60
2023-05-13T11:26:51.816Z,10.60
2023-05-13T11:29:30.008Z,10.60
2023-05-13T11:32:00.256Z,10.50
2023-05-13T11:34:28.121Z,10.60
2023-05-13T11:37:07.160Z,10.60
2023-05-13T11:39:34.387Z,10.60
2023-05-13T11:42:01.788Z,10.60
2023-05-13T11:44:29.083Z,10.70
2023-05-13T11:46:59.845Z,10.70
2023-05-13T11:49:30.389Z,10.70
2023-05-13T11:51:58.937Z,10.80
2023-05-13T11:54:26.991Z,10.80
2023-05-13T11:56:54.171Z,10.80
2023-05-13T11:59:23.917Z,10.80
2023-05-13T12:02:01.245Z,10.80
2023-05-13T12:04:32.074Z,10.90
2023-05-13T12:06:59.890Z,10.90
2023-05-13T12:09:27.061Z,10.90
2023-05-13T12:11:55.571Z,10.90
2023-05-13T12:14:27.676Z,10.90
2023-05-13T12:16:55.862Z,11.00
2023-05-13T12:19:22.963Z,11.00
2023-05-13T12:21:50.622Z,11.00
2023-05-13T12:24:19.973Z,11.10
2023-05-13T12:26:47.567Z,11.20
2023-05-13T12:29:14.850Z,11.20
2023-05-13T12:31:42.708Z,11.30
2023-05-13T12:34:12.360Z,11.40
2023-05-13T12:36:42.751Z,11.40
2023-05-13T12:39:11.129Z,11.50
2023-05-13T12:41:41.585Z,11.50
2023-05-13T12:44:09.405Z,11.50
2023-05-13T12:46:37.307Z,11.50
2023-05-13T12:49:05.293Z,11.50
2023-05-13T12:51:34.951Z,11.40
2023-05-13T12:54:03.892Z,11.40
2023-05-13T12:56:31.250Z,11.50
2023-05-13T12:58:58.975Z,11.50
2023-05-13T13:01:26.185Z,11.50
2023-05-13T13:03:55.788Z,11.50
2023-05-13T13:06:23.025Z,11.50
2023-05-13T13:08:51.913Z,11.50
2023-05-13T13:11:20.700Z,11.50
2023-05-13T13:13:48.457Z,11.40
2023-05-13T13:16:18.269Z,11.40
2023-05-13T13:18:45.459Z,11.40
2023-05-13T13:21:12.628Z,11.40
2023-05-13T13:23:39.705Z,11.40
2023-05-13T13:26:06.779Z,11.50
2023-05-13T13:28:33.788Z,11.50
2023-05-13T13:31:00.940Z,11.50
2023-05-13T13:33:28.019Z,11.50
2023-05-13T13:35:55.125Z,11.50
2023-05-13T13:38:22.098Z,11.50
2023-05-13T13:40:49.092Z,11.60
2023-05-13T13:43:16.097Z,11.60
2023-05-13T13:45:43.196Z,11.60
2023-05-13T13:48:10.391Z,11.70
2023-05-13T13:50:37.484Z,11.70
2023-05-13T13:53:04.509Z,11.80
2023-05-13T13:55:31.593Z,11.90
2023-05-13T13:57:58.665Z,12.00
2023-05-13T14:00:26.061Z,12.10
2023-05-13T14:02:53.632Z,12.30
2023-05-13T14:05:20.835Z,12.50
2023-05-13T14:07:49.332Z,12.50
2023-05-13T14:10:16.446Z,12.60
2023-05-13T14:12:43.655Z,12.70
2023-05-13T14:15:10.916Z,12.80
2023-05-13T14:17:37.980Z,12.80
2023-05-13T14:20:05.942Z,12.80
2023-05-13T14:22:32.924Z,12.80
2023-05-13T14:24:59.946Z,12.60
2023-05-13T14:27:27.025Z,12.50
2023-05-13T14:29:54.061Z,12.40
2023-05-13T14:32:21.133Z,12.30
2023-05-13T14:34:48.110Z,12.20
2023-05-13T14:37:15.500Z,12.20
2023-05-13T14:39:42.475Z,12.10
2023-05-13T14:42:11.425Z,12.10
2023-05-13T14:44:38.511Z,12.10
2023-05-13T14:47:06.492Z,12.10
2023-05-13T14:49:33.522Z,12.10
2023-05-13T14:52:00.642Z,12.10
2023-05-13T14:54:27.656Z,12.20
2023-05-13T14:56:55.041Z,12.20
2023-05-13T14:59:22.730Z,12.20
2023-05-13T15:01:49.739Z,12.30
2023-05-13T15:04:16.820Z,12.40
2023-05-13T15:06:43.862Z,12.40
2023-05-13T15:09:10.888Z,12.40
2023-05-13T15:14:06.196Z,12.40
2023-05-13T15:16:33.796Z,12.40
2023-05-13T15:19:01.609Z,12.40
2023-05-13T15:21:30.244Z,12.40
2023-05-13T15:23:57.392Z,12.40
2023-05-13T15:26:24.765Z,12.30
2023-05-13T15:28:52.072Z,12.30
2023-05-13T15:31:21.833Z,12.30
2023-05-13T15:33:50.135Z,12.40
2023-05-13T15:36:19.815Z,12.40
2023-05-13T15:38:49.822Z,12.40
2023-05-13T15:41:17.182Z,12.50
2023-05-13T15:43:44.782Z,12.50
2023-05-13T15:46:13.250Z,12.50
2023-05-13T15:48:40.567Z,12.50
2023-05-13T15:51:07.961Z,12.60
2023-05-13T15:53:35.151Z,12.50
2023-05-13T15:56:04.774Z,12.50
2023-05-13T15:58:32.247Z,12.50
2023-05-13T16:00:59.726Z,12.50
2023-05-13T16:03:27.085Z,12.50
2023-05-13T16:05:58.541Z,12.50
2023-05-13T16:08:28.602Z,12.50
2023-05-13T16:10:56.047Z,12.50
2023-05-13T16:13:23.565Z,12.50
2023-05-13T16:15:50.983Z,12.50
2023-05-13T16:18:18.433Z,12.50
2023-05-13T16:20:45.800Z,12.50
2023-05-13T16:23:13.067Z,12.60
2023-05-13T16:25:40.410Z,12.70
2023-05-13T16:28:07.588Z,12.80
2023-05-13T16:30:34.767Z,12.90
2023-05-13T16:33:02.030Z,12.90
2023-05-13T16:35:29.301Z,12.90
2023-05-13T16:37:56.427Z,12.90
2023-05-13T16:40:23.948Z,12.90
2023-05-13T16:42:58.831Z,12.90
2023-05-13T16:45:29.678Z,12.90
2023-05-13T16:47:56.920Z,12.90
2023-05-13T16:50:24.309Z,12.90
2023-05-13T16:52:51.504Z,12.90
2023-05-13T16:55:18.558Z,12.90
2023-05-13T16:57:46.729Z,12.90
2023-05-13T17:00:14.430Z,12.80
2023-05-13T17:02:42.645Z,12.80
2023-05-13T17:05:09.855Z,12.80
2023-05-13T17:07:36.857Z,12.80
2023-05-13T17:10:04.096Z,12.80
2023-05-13T17:12:31.080Z,12.80
2023-05-13T17:14:58.060Z,12.80
2023-05-13T17:17:25.080Z,12.80
2023-05-13T17:19:52.102Z,12.80
2023-05-13T17:22:19.176Z,12.80
2023-05-13T17:24:46.168Z,12.70
2023-05-13T17:27:13.141Z,12.70
2023-05-13T17:29:40.103Z,12.70
2023-05-13T17:32:07.217Z,12.70
2023-05-13T17:34:34.243Z,12.70
2023-05-13T17:37:01.210Z,12.60
2023-05-13T17:39:28.332Z,12.70
2023-05-13T17:41:55.464Z,12.60
2023-05-13T17:44:23.813Z,12.60
2023-05-13T17:46:50.928Z,12.60
2023-05-13T17:49:18.010Z,12.60
2023-05-13T17:51:45.041Z,12.60
2023-05-13T17:54:12.027Z,12.60
2023-05-13T17:56:38.997Z,12.60
2023-05-13T17:59:06.721Z,12.60
2023-05-13T18:01:33.718Z,12.60
2023-05-13T18:04:00.845Z,12.60
2023-05-13T18:06:27.944Z,12.60
2023-05-13T18:08:54.951Z,12.60
2023-05-13T18:11:22.070Z,12.50
2023-05-13T18:13:49.338Z,12.60
2023-05-13T18:16:19.269Z,12.50
2023-05-13T18:18:48.521Z,12.50
2023-05-13T18:21:15.923Z,12.50
2023-05-13T18:23:45.820Z,12.50
2023-05-13T18:26:13.076Z,12.50
2023-05-13T18:28:41.258Z,12.40
2023-05-13T18:31:08.237Z,12.50
2023-05-13T18:33:35.322Z,12.50
2023-05-13T18:36:02.571Z,12.40
2023-05-13T18:38:29.596Z,12.50
2023-05-13T18:40:56.643Z,12.50
2023-05-13T18:43:23.651Z,12.40
2023-05-13T18:45:50.728Z,12.40
2023-05-13T18:48:18.068Z,12.40
2023-05-13T18:50:45.029Z,12.40
2023-05-13T18:53:11.999Z,12.40
2023-05-13T18:55:38.979Z,12.40
2023-05-13T18:58:06.517Z,12.40
2023-05-13T19:00:33.776Z,12.30
2023-05-13T19:03:00.945Z,12.30
2023-05-13T19:05:28.072Z,12.30
2023-05-13T19:07:55.722Z,12.30
2023-05-13T19:10:23.303Z,12.30
2023-05-13T19:12:50.812Z,12.30
2023-05-13T19:15:21.040Z,12.30
2023-05-13T19:17:48.116Z,12.30
2023-05-13T19:20:15.705Z,12.30
2023-05-13T19:22:42.918Z,12.30
2023-05-13T19:25:09.890Z,12.30
2023-05-13T19:27:36.856Z,12.30
2023-05-13T19:30:04.196Z,12.20
2023-05-13T19:32:31.197Z,12.20
2023-05-13T19:34:58.426Z,12.30
2023-05-13T19:37:26.286Z,12.30
2023-05-13T19:39:53.267Z,12.30
2023-05-13T19:42:20.480Z,12.20
2023-05-13T19:44:47.519Z,12.20
2023-05-13T19:47:14.526Z,12.20
2023-05-13T19:49:41.589Z,12.20
2023-05-13T19:52:08.587Z,12.20
2023-05-13T19:54:35.592Z,12.30
2023-05-13T19:57:02.857Z,12.30
2023-05-13T19:59:29.933Z,12.30
2023-05-13T20:01:57.028Z,12.20
2023-05-13T20:04:24.111Z,12.20
2023-05-13T20:06:51.297Z,12.10
2023-05-13T20:09:18.377Z,12.10
2023-05-13T20:11:45.362Z,12.00
2023-05-13T20:14:13.109Z,12.00
2023-05-13T20:16:40.511Z,11.90
2023-05-13T20:19:08.322Z,11.90
2023-05-13T20:21:35.359Z,11.90
2023-05-13T20:24:02.462Z,11.90
2023-05-13T20:26:30.159Z,11.80
2023-05-13T20:28:58.725Z,11.80
2023-05-13T20:31:26.263Z,11.70
2023-05-13T20:33:55.861Z,11.70
2023-05-13T20:36:26.004Z,11.70
2023-05-13T20:38:53.539Z,11.70
2023-05-13T20:41:21.747Z,11.70
2023-05-13T20:43:49.180Z,11.60
2023-05-13T20:46:17.253Z,11.60
2023-05-13T20:48:44.801Z,11.60
2023-05-13T20:51:14.391Z,11.60
2023-05-13T20:53:43.145Z,11.60
2023-05-13T20:56:13.182Z,11.60
2023-05-13T20:58:40.660Z,11.50
2023-05-13T21:01:08.136Z,11.50
2023-05-13T21:03:35.703Z,11.50
2023-05-13T21:06:03.129Z,11.50
2023-05-13T21:08:30.618Z,11.50
2023-05-13T21:10:59.724Z,11.50
2023-05-13T21:13:27.139Z,11.40
2023-05-13T21:15:55.768Z,11.40
2023-05-13T21:18:23.545Z,11.40
2023-05-13T21:20:51.230Z,11.50
2023-05-13T21:23:20.472Z,11.50
2023-05-13T21:25:48.005Z,11.50
2023-05-13T21:28:15.349Z,11.40
2023-05-13T21:30:42.710Z,11.40
2023-05-13T21:33:10.121Z,11.40
2023-05-13T21:35:37.508Z,11.40
2023-05-13T21:38:12.285Z,11.40
2023-05-13T21:40:39.997Z,11.50
2023-05-13T21:43:07.085Z,11.40
2023-05-13T21:45:34.397Z,11.50
2023-05-13T21:48:01.679Z,11.50
2023-05-13T21:50:29.064Z,11.40
2023-05-13T21:52:56.141Z,11.50
2023-05-13T21:55:23.460Z,11.50
2023-05-13T21:57:50.859Z,11.50
2023-05-13T22:00:19.255Z,11.40
2023-05-13T22:02:46.449Z,11.50
2023-05-13T22:05:13.567Z,11.50
2023-05-13T22:07:40.633Z,11.50
2023-05-13T22:10:08.015Z,11.50
2023-05-13T22:12:35.095Z,11.50
2023-05-13T22:15:02.200Z,11.50
2023-05-13T22:17:29.353Z,11.50
2023-05-13T22:19:56.898Z,11.50
2023-05-13T22:22:24.064Z,11.50
2023-05-13T22:24:51.710Z,11.50
2023-05-13T22:27:19.932Z,11.50
2023-05-13T22:29:47.218Z,11.40
2023-05-13T22:32:14.784Z,11.40
2023-05-13T22:34:41.995Z,11.50
2023-05-13T22:37:09.217Z,11.50
2023-05-13T22:39:38.112Z,11.40
2023-05-13T22:42:07.557Z,11.40
2023-05-13T22:44:36.313Z,11.40
2023-05-13T22:47:04.091Z,11.40
2023-05-13T22:49:31.390Z,11.40
2023-05-13T22:51:58.594Z,11.40
2023-05-13T22:54:25.831Z,11.40
2023-05-13T22:56:52.933Z,11.40
2023-05-13T22:59:20.287Z,11.40
2023-05-13T23:01:47.946Z,11.40
2023-05-13T23:04:15.463Z,11.40
2023-05-13T23:06:45.229Z,11.30
2023-05-13T23:09:12.735Z,11.30
2023-05-13T23:11:40.189Z,11.40
2023-05-13T23:14:11.008Z,11.30
2023-05-13T23:16:38.300Z,11.30
2023-05-13T23:19:06.139Z,11.30
2023-05-13T23:21:33.362Z,11.30
2023-05-13T23:24:00.638Z,11.30
2023-05-13T23:26:29.124Z,11.20
2023-05-13T23:28:58.916Z,11.30
2023-05-13T23:31:26.662Z,11.20
2023-05-13T23:33:53.667Z,11.20
2023-05-13T23:36:21.136Z,11.10
2023-05-13T23:38:50.966Z,11.10
2023-05-13T23:41:21.800Z,11.10
2023-05-13T23:43:49.155Z,11.10
2023-05-13T23:46:16.350Z,11.00
2023-05-13T23:48:43.665Z,11.00
2023-05-13T23:51:16.106Z,11.00
2023-05-13T23:53:45.467Z,11.00
2023-05-13T23:56:12.868Z,11.00
2023-05-13T23:58:42.834Z,10.90
